Carlstadt, NJ

6:53 PM EST on February 08, 2016 (GMT -0500)
East Rutherford Fire | | Change Station
CLOSE
Current Station
Personal Weather Station
Location: East Rutherford, NJ
Elevation: 79 ft
Nearby Weather Stations

Elev 79 ft 40.84 °N, 74.10 °W | Updated 16 seconds ago

Light Snow
Light Snow
32.5 °F
Feels Like 29 °F
N
3.6
Wind Variable Wind from ESE
Gusts 4.9 mph

Today
High -- | Low -- °F
--% Chance of Precip.
Yesterday
High -- | Low -- °F
Precip. -- in
Pressure 29.78 in
Visibility 8.0 miles
Clouds Mostly Cloudy 3200 ft
Overcast 5000 ft
Windchill 29 °F
Dew Point 22 °F
Humidity 64%
Rainfall 0.00 in
Snow Depth Not available.
6:59 AM 5:21 PM
New Moon, 0% visible
METAR KTEB 082351Z 06007KT 8SM -SN BKN032 OVC050 M01/M06 A2978 RMK AO2 SLP083 P0000 60000 T10061056 10022 21006 51019
Pressure 29.78 in
Visibility 8.0 miles
Clouds Mostly Cloudy 3200 ft
Overcast 5000 ft
Windchill 29 °F
Dew Point 22 °F
Humidity 64%
Rainfall 0.00 in
Snow Depth Not available.
6:59 AM 5:21 PM
New Moon, 0% visible
METAR KTEB 082351Z 06007KT 8SM -SN BKN032 OVC050 M01/M06 A2978 RMK AO2 SLP083 P0000 60000 T10061056 10022 21006 51019
Winter Storm will continue impacting eastern New England through Monday night with a combination of heavy snow and strong winds, resulting in dangerous travel conditions. In parts of southeast Massachusetts, blizzard conditions are possible along with tree damage, some power outages and coastal flooding. As of late Monday morning, winds had gusted up to 57 mph on Nantucket Island and coastal flooding was reported in several locations along the Massachusetts coast.

10-Day Weather Forecast

Almanac

Astronomy

Feb. 08, 2016 Rise Set
Actual Time
Civil Twilight
Nautical Twilight
Astronomical Twilight
Moon
Length of Visible Light
Length of Day
Tomorrow will be .
, % of the Moon is Illuminated

Today's Extremes

State Highs State Lows

Community

WunderPhotos

Upload Photos

1,891,527 photos uploaded!

WunderBlog® & News

Nearby

Air Quality

  Air Quality AQ Index Pollutant
Not available.

Snow Depth

Station Depth Elevation

Earthquake Activity

City Distance Mag. Time & Date
Minimum magnitude displayed is 2.5.

Coastal Water Temperatures

Place Temperature

Stations

Nearby Weather Stations

Station Location Temp. Windchill Dew Point Humidity Wind Precip. Elev Updated Type
                   

Watches & Warnings

There are currently no watches in effect.